createdAt,value
2018-06-03T00:01:17.020Z,16.00
2018-06-03T00:03:44.572Z,16.00
2018-06-03T00:06:12.122Z,16.00
2018-06-03T00:08:39.707Z,16.00
2018-06-03T00:11:07.255Z,16.00
2018-06-03T00:13:34.826Z,15.90
2018-06-03T00:16:02.408Z,16.00
2018-06-03T00:18:29.956Z,16.00
2018-06-03T00:21:09.304Z,16.00
2018-06-03T00:23:36.858Z,15.90
2018-06-03T00:26:04.440Z,15.90
2018-06-03T00:28:32.043Z,16.00
2018-06-03T00:30:59.593Z,16.00
2018-06-03T00:33:27.149Z,16.10
2018-06-03T00:36:06.404Z,16.10
2018-06-03T00:38:34.720Z,16.30
2018-06-03T00:41:02.277Z,16.30
2018-06-03T00:43:29.855Z,16.30
2018-06-03T00:45:57.408Z,16.30
2018-06-03T00:48:24.962Z,16.40
2018-06-03T00:50:52.559Z,16.40
2018-06-03T00:53:20.386Z,16.40
2018-06-03T00:55:47.940Z,16.30
2018-06-03T00:58:15.527Z,16.30
2018-06-03T01:00:43.076Z,16.50
2018-06-03T01:03:10.633Z,16.50
2018-06-03T01:05:38.401Z,16.60
2018-06-03T01:08:05.960Z,16.60
2018-06-03T01:10:34.473Z,16.60
2018-06-03T01:13:02.061Z,16.60
2018-06-03T01:15:29.607Z,16.60
2018-06-03T01:17:57.981Z,16.50
2018-06-03T01:20:26.242Z,16.50
2018-06-03T01:22:53.795Z,16.50
2018-06-03T01:25:21.523Z,16.50
2018-06-03T01:27:49.107Z,16.50
2018-06-03T01:30:16.715Z,16.50
2018-06-03T01:32:44.281Z,16.40
2018-06-03T01:35:12.137Z,16.40
2018-06-03T01:37:39.692Z,16.40
2018-06-03T01:40:07.325Z,16.50
2018-06-03T01:42:35.052Z,16.50
2018-06-03T01:45:03.433Z,16.50
2018-06-03T01:47:30.991Z,16.50
2018-06-03T01:49:58.688Z,16.50
2018-06-03T01:52:26.276Z,16.50
2018-06-03T01:54:54.181Z,16.50
2018-06-03T01:57:21.766Z,16.40
2018-06-03T01:59:49.552Z,16.30
2018-06-03T02:02:17.995Z,16.40
2018-06-03T02:04:45.595Z,16.40
2018-06-03T02:07:13.153Z,16.40
2018-06-03T02:09:40.704Z,16.50
2018-06-03T02:12:08.298Z,16.50
2018-06-03T02:14:36.096Z,16.50
2018-06-03T02:17:03.725Z,16.60
2018-06-03T02:19:31.452Z,16.50
2018-06-03T02:21:59.771Z,16.50
2018-06-03T02:24:27.391Z,16.40
2018-06-03T02:26:55.745Z,16.50
2018-06-03T02:29:23.445Z,16.40
2018-06-03T02:31:50.995Z,16.50
2018-06-03T02:34:19.008Z,16.60
2018-06-03T02:36:46.692Z,16.50
2018-06-03T02:39:14.532Z,16.60
2018-06-03T02:41:42.408Z,16.50
2018-06-03T02:44:09.997Z,16.40
2018-06-03T02:46:37.668Z,16.40
2018-06-03T02:49:05.569Z,16.50
2018-06-03T02:51:33.331Z,16.50
2018-06-03T02:54:01.084Z,16.40
2018-06-03T02:56:29.008Z,16.40
2018-06-03T02:58:56.609Z,16.40
2018-06-03T03:01:24.452Z,16.40
2018-06-03T03:03:52.419Z,16.40
2018-06-03T03:06:20.015Z,16.30
2018-06-03T03:08:47.698Z,16.40
2018-06-03T03:11:15.531Z,16.30
2018-06-03T03:13:44.159Z,16.30
2018-06-03T03:16:11.888Z,16.30
2018-06-03T03:18:39.807Z,16.40
2018-06-03T03:21:08.124Z,16.30
2018-06-03T03:23:35.687Z,16.30
2018-06-03T03:26:03.562Z,16.40
2018-06-03T03:28:31.147Z,16.30
2018-06-03T03:30:58.699Z,16.30
2018-06-03T03:33:26.549Z,16.40
2018-06-03T03:35:54.379Z,16.40
2018-06-03T03:38:22.296Z,16.30
2018-06-03T03:40:50.176Z,16.40
2018-06-03T03:43:17.723Z,16.40
2018-06-03T03:45:45.277Z,16.30
2018-06-03T03:48:12.889Z,16.20
2018-06-03T03:50:40.491Z,16.20
2018-06-03T03:53:08.110Z,16.30
2018-06-03T03:55:35.779Z,16.30
2018-06-03T03:58:03.620Z,16.40
2018-06-03T04:00:31.936Z,16.40
2018-06-03T04:02:59.762Z,16.40
2018-06-03T04:05:28.108Z,16.50
2018-06-03T04:07:56.046Z,16.40
2018-06-03T04:10:23.687Z,16.40
2018-06-03T04:12:51.569Z,16.50
2018-06-03T04:15:19.296Z,16.50
2018-06-03T04:17:47.656Z,16.60
2018-06-03T04:20:49.924Z,16.60
2018-06-03T04:23:19.297Z,16.70
2018-06-03T04:25:48.616Z,16.70
2018-06-03T04:28:18.528Z,16.60
2018-06-03T04:30:47.920Z,16.60
2018-06-03T04:33:17.379Z,16.50
2018-06-03T04:35:46.915Z,16.40
2018-06-03T04:38:16.210Z,16.50
2018-06-03T04:40:45.854Z,16.50
2018-06-03T04:43:15.050Z,16.50
2018-06-03T04:45:44.375Z,16.50
2018-06-03T04:48:13.476Z,16.60
2018-06-03T04:50:43.177Z,16.50
2018-06-03T04:53:12.492Z,16.40
2018-06-03T04:55:42.063Z,16.30
2018-06-03T04:58:11.788Z,16.30
2018-06-03T05:00:41.490Z,16.30
2018-06-03T05:03:11.177Z,16.30
2018-06-03T05:05:40.995Z,16.40
2018-06-03T05:08:10.757Z,16.30
2018-06-03T05:10:40.299Z,16.20
2018-06-03T05:13:09.565Z,16.20
2018-06-03T05:15:39.257Z,16.30
2018-06-03T05:18:08.811Z,16.30
2018-06-03T05:20:38.148Z,16.30
2018-06-03T05:23:07.352Z,16.20
2018-06-03T05:25:36.916Z,16.20
2018-06-03T05:28:06.372Z,16.20
2018-06-03T05:30:35.960Z,16.20
2018-06-03T05:33:05.252Z,16.20
2018-06-03T05:38:03.621Z,16.30
2018-06-03T05:40:32.907Z,16.30
2018-06-03T05:43:02.400Z,16.40
2018-06-03T05:45:31.960Z,16.40
2018-06-03T05:50:30.203Z,16.40
2018-06-03T05:52:59.423Z,16.50
2018-06-03T05:55:28.964Z,16.40
2018-06-03T05:57:58.339Z,16.40
2018-06-03T06:00:27.993Z,16.40
2018-06-03T06:02:57.140Z,16.30
2018-06-03T06:05:26.467Z,16.30
2018-06-03T06:07:56.222Z,16.30
2018-06-03T06:10:25.584Z,16.30
2018-06-03T06:12:54.816Z,16.20
2018-06-03T06:15:24.467Z,16.10
2018-06-03T06:17:53.548Z,16.10
2018-06-03T06:20:22.992Z,16.10
2018-06-03T06:22:52.559Z,16.10
2018-06-03T06:25:22.181Z,16.20
2018-06-03T06:27:51.523Z,16.10
2018-06-03T06:30:20.741Z,16.10
2018-06-03T06:32:50.235Z,16.10
2018-06-03T06:35:19.453Z,16.10
2018-06-03T06:37:49.114Z,16.10
2018-06-03T06:40:18.468Z,16.20
2018-06-03T06:42:48.037Z,16.20
2018-06-03T06:45:17.470Z,16.30
2018-06-03T06:47:47.165Z,16.30
2018-06-03T06:50:16.506Z,16.30
2018-06-03T06:52:45.998Z,16.30
2018-06-03T06:55:15.252Z,16.10
2018-06-03T06:57:44.608Z,16.20
2018-06-03T07:00:14.082Z,16.20
2018-06-03T07:02:43.625Z,16.20
2018-06-03T07:05:13.378Z,16.20
2018-06-03T07:07:42.946Z,16.30
2018-06-03T07:10:13.494Z,16.30
2018-06-03T07:12:43.409Z,16.40
2018-06-03T07:15:12.931Z,16.40
2018-06-03T07:17:42.376Z,16.50
2018-06-03T07:20:11.997Z,16.50
2018-06-03T07:22:41.520Z,16.40
2018-06-03T07:25:11.372Z,16.50
2018-06-03T07:27:41.770Z,16.60
2018-06-03T07:30:11.404Z,16.70
2018-06-03T07:32:41.025Z,16.70
2018-06-03T07:35:10.598Z,16.60
2018-06-03T07:37:40.336Z,16.70
2018-06-03T07:40:09.789Z,16.60
2018-06-03T07:42:39.507Z,16.60
2018-06-03T07:45:09.289Z,16.60
2018-06-03T07:47:39.003Z,16.60
2018-06-03T07:50:08.461Z,16.50
2018-06-03T07:52:39.063Z,16.60
2018-06-03T07:55:08.249Z,16.50
2018-06-03T07:57:37.743Z,16.60
2018-06-03T08:00:07.133Z,16.70
2018-06-03T08:02:36.574Z,16.70
2018-06-03T08:05:06.050Z,16.70
2018-06-03T08:07:35.512Z,16.70
2018-06-03T08:10:04.725Z,16.70
2018-06-03T08:12:34.228Z,16.80
2018-06-03T08:15:03.658Z,16.80
2018-06-03T08:17:33.486Z,16.90
2018-06-03T08:20:02.865Z,16.90
2018-06-03T08:22:32.331Z,17.00
2018-06-03T08:25:01.935Z,17.00
2018-06-03T08:27:31.624Z,17.00
2018-06-03T08:30:01.606Z,17.00
2018-06-03T08:32:31.894Z,17.00
2018-06-03T08:35:01.383Z,17.10
2018-06-03T08:37:30.428Z,17.10
2018-06-03T08:39:59.934Z,17.20
2018-06-03T08:42:29.329Z,17.20
2018-06-03T08:44:58.515Z,17.20
2018-06-03T08:47:27.851Z,17.40
2018-06-03T08:49:57.333Z,17.40
2018-06-03T08:52:26.688Z,17.50
2018-06-03T08:54:55.681Z,17.40
2018-06-03T08:57:25.276Z,17.50
2018-06-03T08:59:54.571Z,17.60
2018-06-03T09:02:23.806Z,17.50
2018-06-03T09:04:53.349Z,17.40
2018-06-03T09:07:23.071Z,17.50
2018-06-03T09:09:52.583Z,17.60
2018-06-03T09:12:22.041Z,17.70
2018-06-03T09:14:51.404Z,17.90
2018-06-03T09:17:21.591Z,17.90
2018-06-03T09:19:51.275Z,17.80
2018-06-03T09:22:20.667Z,17.90
2018-06-03T09:24:50.092Z,18.00
2018-06-03T09:27:19.400Z,18.10
2018-06-03T09:29:48.693Z,18.10
2018-06-03T09:32:18.593Z,17.90
2018-06-03T09:34:47.881Z,18.10
2018-06-03T09:37:17.355Z,18.30
2018-06-03T09:39:47.017Z,18.60
2018-06-03T09:42:16.564Z,18.40
2018-06-03T09:44:45.929Z,18.40
2018-06-03T09:47:15.765Z,18.60
2018-06-03T09:49:44.907Z,18.80
2018-06-03T09:52:14.413Z,18.90
2018-06-03T09:54:44.009Z,19.10
2018-06-03T09:57:13.240Z,19.30
2018-06-03T09:59:42.704Z,19.30
2018-06-03T10:02:12.309Z,19.70
2018-06-03T10:04:41.564Z,19.70
2018-06-03T10:07:11.121Z,19.50
2018-06-03T10:09:40.572Z,19.60
2018-06-03T10:12:09.973Z,19.50
2018-06-03T10:14:39.635Z,19.70
2018-06-03T10:17:08.962Z,19.70
2018-06-03T10:19:38.362Z,20.00
2018-06-03T10:22:07.708Z,19.80
2018-06-03T10:27:06.189Z,20.40
2018-06-03T10:29:35.677Z,20.70
2018-06-03T10:32:04.767Z,20.50
2018-06-03T10:34:34.096Z,20.70
2018-06-03T10:37:03.952Z,20.90
2018-06-03T10:39:33.301Z,21.40
2018-06-03T10:42:02.824Z,20.90
2018-06-03T10:44:32.273Z,21.30
2018-06-03T10:47:01.578Z,21.70
2018-06-03T10:49:30.814Z,21.80
2018-06-03T10:52:00.161Z,22.40
2018-06-03T10:54:29.505Z,21.90
2018-06-03T10:56:58.745Z,22.10
2018-06-03T10:59:28.182Z,22.10
2018-06-03T11:01:57.999Z,21.90
2018-06-03T11:04:27.484Z,22.10
2018-06-03T11:06:56.752Z,22.30
2018-06-03T11:09:25.935Z,22.20
2018-06-03T11:11:55.307Z,22.40
2018-06-03T11:14:24.692Z,22.30
2018-06-03T11:16:54.286Z,22.60
2018-06-03T11:19:23.558Z,23.10
2018-06-03T11:21:53.281Z,23.20
2018-06-03T11:24:23.091Z,23.00
2018-06-03T11:26:52.844Z,23.20
2018-06-03T11:29:22.234Z,24.00
2018-06-03T11:31:51.544Z,23.50
2018-06-03T11:34:20.793Z,24.30
2018-06-03T11:36:50.267Z,23.90
2018-06-03T11:39:19.526Z,24.00
2018-06-03T11:41:48.716Z,24.30
2018-06-03T11:44:18.108Z,24.50
2018-06-03T11:46:47.311Z,23.90
2018-06-03T11:49:16.592Z,23.80
2018-06-03T11:51:45.807Z,24.40
2018-06-03T11:54:15.043Z,24.40
2018-06-03T11:56:55.076Z,23.60
2018-06-03T11:59:45.541Z,24.20
2018-06-03T12:02:18.121Z,24.70
2018-06-03T12:04:47.335Z,23.20
2018-06-03T12:07:16.696Z,23.20
2018-06-03T12:09:46.246Z,23.00
2018-06-03T12:12:16.111Z,22.90
2018-06-03T12:14:45.580Z,22.60
2018-06-03T12:17:15.077Z,22.50
2018-06-03T12:19:44.252Z,22.40
2018-06-03T12:22:13.754Z,22.10
2018-06-03T12:24:43.190Z,22.00
2018-06-03T12:27:12.582Z,21.70
2018-06-03T12:29:42.130Z,21.80
2018-06-03T12:32:11.366Z,21.50
2018-06-03T12:34:40.792Z,21.50
2018-06-03T12:37:09.944Z,21.20
2018-06-03T12:39:40.579Z,21.20
2018-06-03T12:42:10.445Z,21.20
2018-06-03T12:44:39.761Z,21.30
2018-06-03T12:47:08.897Z,21.50
2018-06-03T12:49:38.241Z,21.50
2018-06-03T12:52:07.615Z,22.10
2018-06-03T12:54:37.166Z,22.80
2018-06-03T12:57:06.440Z,24.00
2018-06-03T12:59:35.632Z,24.50
2018-06-03T13:02:05.155Z,24.50
2018-06-03T13:04:34.788Z,24.10
2018-06-03T13:07:04.338Z,23.50
2018-06-03T13:09:33.820Z,23.20
2018-06-03T13:12:04.843Z,22.80
2018-06-03T13:14:34.488Z,22.40
2018-06-03T13:17:03.716Z,22.30
2018-06-03T13:19:32.980Z,22.30
2018-06-03T13:22:02.499Z,22.00
2018-06-03T13:24:31.639Z,22.10
2018-06-03T13:27:01.077Z,22.70
2018-06-03T13:29:30.449Z,22.60
2018-06-03T13:31:59.765Z,22.70
2018-06-03T13:34:29.208Z,22.30
2018-06-03T13:36:58.381Z,22.20
2018-06-03T13:39:27.808Z,22.20
2018-06-03T13:41:57.309Z,22.40
2018-06-03T13:44:26.575Z,21.80
2018-06-03T13:46:55.915Z,21.90
2018-06-03T13:49:25.274Z,21.90
2018-06-03T13:51:54.708Z,22.40
2018-06-03T13:54:24.022Z,22.70
2018-06-03T13:56:53.113Z,22.50
2018-06-03T13:59:22.418Z,23.20
2018-06-03T14:01:51.594Z,23.00
2018-06-03T14:04:21.034Z,22.70
2018-06-03T14:06:50.758Z,22.80
2018-06-03T14:09:20.157Z,23.40
2018-06-03T14:11:49.373Z,23.50
2018-06-03T14:14:18.804Z,24.20
2018-06-03T14:16:48.342Z,24.30
2018-06-03T14:19:18.083Z,23.70
2018-06-03T14:21:47.288Z,23.50
2018-06-03T14:24:16.482Z,23.50
2018-06-03T14:26:45.952Z,23.50
2018-06-03T14:29:15.264Z,23.00
2018-06-03T14:31:44.542Z,23.90
2018-06-03T14:34:14.297Z,24.60
2018-06-03T14:36:43.615Z,23.90
2018-06-03T14:39:12.867Z,23.90
2018-06-03T14:41:42.312Z,23.50
2018-06-03T14:44:11.726Z,23.90
2018-06-03T14:46:41.363Z,24.10
2018-06-03T14:49:10.749Z,23.70
2018-06-03T14:51:40.046Z,24.00
2018-06-03T14:54:09.396Z,23.30
2018-06-03T14:56:38.870Z,23.50
2018-06-03T14:59:07.981Z,23.70
2018-06-03T15:01:37.143Z,24.00
2018-06-03T15:04:06.595Z,23.30
2018-06-03T15:06:35.717Z,23.50
2018-06-03T15:09:06.850Z,23.90
2018-06-03T15:11:36.222Z,24.00
2018-06-03T15:14:05.594Z,23.90
2018-06-03T15:16:35.083Z,23.70
2018-06-03T15:19:04.470Z,23.50
2018-06-03T15:21:33.652Z,23.50
2018-06-03T15:24:03.231Z,23.50
2018-06-03T15:26:32.743Z,23.70
2018-06-03T15:29:01.990Z,23.10
2018-06-03T15:31:31.429Z,23.10
2018-06-03T15:34:00.637Z,23.40
2018-06-03T15:36:29.878Z,23.20
2018-06-03T15:38:59.127Z,22.90
2018-06-03T15:41:28.463Z,23.10
2018-06-03T15:43:57.541Z,22.90
2018-06-03T15:46:27.160Z,22.70
2018-06-03T15:48:56.772Z,23.20
2018-06-03T15:51:26.172Z,23.20
2018-06-03T15:53:56.010Z,23.50
2018-06-03T15:56:25.696Z,23.20
2018-06-03T15:58:55.159Z,22.80
2018-06-03T16:03:53.934Z,22.70
2018-06-03T16:06:23.506Z,22.50
2018-06-03T16:08:52.814Z,22.50
2018-06-03T16:11:21.970Z,22.50
2018-06-03T16:13:51.276Z,22.30
2018-06-03T16:16:20.936Z,22.20
2018-06-03T16:18:50.073Z,22.10
2018-06-03T16:21:19.631Z,22.40
2018-06-03T16:23:49.232Z,22.40
2018-06-03T16:26:18.720Z,22.50
2018-06-03T16:28:47.965Z,22.20
2018-06-03T16:31:17.217Z,22.40
2018-06-03T16:33:46.619Z,22.30
2018-06-03T16:36:15.781Z,22.20
2018-06-03T16:38:45.233Z,21.90
2018-06-03T16:41:14.254Z,21.80
2018-06-03T16:46:12.665Z,21.70
2018-06-03T16:48:42.090Z,21.70
2018-06-03T16:51:11.529Z,21.40
2018-06-03T16:53:40.733Z,21.30
2018-06-03T16:56:10.098Z,21.20
2018-06-03T16:58:39.642Z,21.10
2018-06-03T17:01:08.653Z,20.90
2018-06-03T17:03:37.880Z,20.70
2018-06-03T17:06:07.574Z,20.80
2018-06-03T17:08:36.888Z,20.50
2018-06-03T17:11:06.327Z,20.30
2018-06-03T17:13:35.658Z,20.20
2018-06-03T17:16:04.859Z,20.10
2018-06-03T17:18:34.073Z,20.00
2018-06-03T17:21:03.313Z,20.20
2018-06-03T17:23:33.016Z,20.00
2018-06-03T17:26:02.262Z,20.00
2018-06-03T17:28:31.675Z,19.80
2018-06-03T17:31:00.976Z,19.80
2018-06-03T17:33:30.371Z,19.80
2018-06-03T17:38:28.516Z,19.60
2018-06-03T17:40:57.917Z,19.50
2018-06-03T17:43:27.174Z,19.40
2018-06-03T17:45:56.674Z,19.30
2018-06-03T17:48:26.590Z,19.20
2018-06-03T17:50:56.000Z,19.00
2018-06-03T17:53:25.398Z,18.90
2018-06-03T17:55:54.729Z,18.70
2018-06-03T17:58:23.876Z,18.80
2018-06-03T18:00:53.286Z,18.90
2018-06-03T18:03:22.612Z,18.80
2018-06-03T18:05:52.085Z,18.60
2018-06-03T18:08:21.429Z,18.40
2018-06-03T18:10:50.590Z,18.30
2018-06-03T18:13:20.073Z,18.20
2018-06-03T18:15:49.292Z,18.30
2018-06-03T18:18:18.833Z,18.40
2018-06-03T18:20:48.275Z,18.40
2018-06-03T18:23:17.411Z,18.40
2018-06-03T18:25:46.831Z,18.30
2018-06-03T18:28:15.951Z,18.30
2018-06-03T18:30:45.079Z,18.40
2018-06-03T18:33:14.586Z,18.30
2018-06-03T18:35:44.121Z,18.30
2018-06-03T18:38:13.531Z,18.30
2018-06-03T18:40:42.768Z,18.20
2018-06-03T18:43:12.188Z,18.30
2018-06-03T18:45:41.865Z,18.20
2018-06-03T18:48:11.094Z,18.20
2018-06-03T18:50:40.828Z,18.20
2018-06-03T18:53:09.972Z,18.20
2018-06-03T18:55:39.217Z,18.10
2018-06-03T18:58:08.538Z,18.20
2018-06-03T19:00:37.931Z,18.00
2018-06-03T19:03:07.109Z,17.90
2018-06-03T19:05:36.539Z,17.80
2018-06-03T19:08:05.738Z,17.60
2018-06-03T19:10:34.910Z,17.60
2018-06-03T19:13:04.089Z,17.60
2018-06-03T19:15:33.424Z,17.50
2018-06-03T19:18:02.778Z,17.40
2018-06-03T19:20:32.089Z,17.30
2018-06-03T19:23:01.525Z,17.30
2018-06-03T19:25:30.699Z,17.20
2018-06-03T19:28:01.081Z,17.20
2018-06-03T19:30:30.413Z,17.20
2018-06-03T19:32:59.787Z,17.00
2018-06-03T19:35:29.413Z,17.00
2018-06-03T19:37:58.916Z,16.90
2018-06-03T19:40:28.275Z,16.90
2018-06-03T19:42:58.035Z,17.00
2018-06-03T19:45:27.559Z,17.10
2018-06-03T19:47:56.886Z,17.10
2018-06-03T19:50:27.655Z,17.20
2018-06-03T19:52:56.821Z,17.10
2018-06-03T19:55:26.273Z,17.20
2018-06-03T19:57:55.661Z,17.20
2018-06-03T20:00:25.320Z,17.10
2018-06-03T20:02:55.296Z,17.00
2018-06-03T20:05:24.722Z,17.00
2018-06-03T20:07:54.473Z,17.00
2018-06-03T20:10:23.948Z,17.00
2018-06-03T20:12:53.472Z,17.00
2018-06-03T20:15:22.529Z,17.00
2018-06-03T20:17:53.920Z,16.90
2018-06-03T20:20:23.706Z,16.90
2018-06-03T20:22:53.144Z,16.60
2018-06-03T20:25:22.406Z,16.60
2018-06-03T20:27:51.745Z,16.50
2018-06-03T20:30:21.315Z,16.50
2018-06-03T20:32:50.720Z,16.50
2018-06-03T20:35:20.131Z,16.50
2018-06-03T20:37:49.327Z,16.40
2018-06-03T20:40:18.528Z,16.30
2018-06-03T20:42:47.945Z,16.20
2018-06-03T20:45:17.457Z,16.10
2018-06-03T20:47:47.030Z,16.00
2018-06-03T20:50:16.881Z,16.00
2018-06-03T20:52:47.359Z,16.00
2018-06-03T20:55:16.665Z,16.00
2018-06-03T20:57:45.693Z,15.70
2018-06-03T21:02:43.704Z,15.60
2018-06-03T21:05:12.858Z,15.70
2018-06-03T21:07:42.187Z,15.70
2018-06-03T21:10:11.293Z,15.60
2018-06-03T21:12:40.503Z,15.40
2018-06-03T21:15:09.739Z,15.40
2018-06-03T21:17:39.187Z,15.50
2018-06-03T21:20:08.656Z,15.50
2018-06-03T21:22:37.859Z,15.30
2018-06-03T21:25:07.088Z,15.10
2018-06-03T21:27:36.489Z,15.20
2018-06-03T21:30:05.946Z,15.40
2018-06-03T21:32:35.361Z,15.40
2018-06-03T21:35:04.620Z,15.40
2018-06-03T21:37:34.178Z,15.30
2018-06-03T21:40:03.269Z,15.40
2018-06-03T21:42:32.492Z,15.40
2018-06-03T21:45:01.733Z,15.40
2018-06-03T21:47:31.092Z,15.30
2018-06-03T21:50:00.211Z,15.30
2018-06-03T21:52:29.524Z,15.20
2018-06-03T21:54:58.792Z,15.20
2018-06-03T21:57:28.084Z,15.10
2018-06-03T21:59:57.436Z,14.90
2018-06-03T22:02:26.550Z,15.00
2018-06-03T22:04:55.786Z,15.00
2018-06-03T22:07:25.128Z,15.10
2018-06-03T22:09:54.574Z,15.00
2018-06-03T22:12:23.872Z,14.90
2018-06-03T22:14:53.075Z,14.70
2018-06-03T22:17:22.268Z,14.60
2018-06-03T22:19:51.436Z,14.60
2018-06-03T22:22:20.700Z,14.70
2018-06-03T22:24:49.820Z,14.80
2018-06-03T22:27:19.068Z,14.80
2018-06-03T22:29:48.256Z,14.70
2018-06-03T22:32:17.670Z,14.60
2018-06-03T22:34:47.395Z,14.60
2018-06-03T22:37:16.588Z,14.40
2018-06-03T22:39:45.971Z,14.40
2018-06-03T22:42:15.123Z,14.30
2018-06-03T22:44:44.395Z,14.30
2018-06-03T22:47:13.527Z,14.30
2018-06-03T22:49:42.767Z,14.20
2018-06-03T22:52:12.150Z,14.10
2018-06-03T22:54:41.356Z,14.20
2018-06-03T22:57:50.103Z,14.20
2018-06-03T23:00:26.812Z,14.10
2018-06-03T23:03:01.337Z,14.10
2018-06-03T23:05:30.581Z,14.10
2018-06-03T23:07:59.730Z,14.10
2018-06-03T23:10:29.012Z,14.10
2018-06-03T23:12:58.165Z,14.00
2018-06-03T23:15:27.360Z,14.10
2018-06-03T23:17:56.610Z,14.00
2018-06-03T23:20:25.940Z,13.80
2018-06-03T23:22:55.013Z,13.60
2018-06-03T23:25:24.372Z,13.60
2018-06-03T23:27:53.640Z,13.60
2018-06-03T23:30:22.818Z,13.50
2018-06-03T23:32:52.103Z,13.60
2018-06-03T23:35:21.503Z,13.60
2018-06-03T23:37:50.831Z,13.60
2018-06-03T23:40:20.173Z,13.60
2018-06-03T23:42:49.302Z,13.50
2018-06-03T23:45:18.528Z,13.50
2018-06-03T23:47:47.742Z,13.50
2018-06-03T23:50:17.127Z,13.40
2018-06-03T23:52:46.296Z,13.30
2018-06-03T23:55:15.553Z,13.20
2018-06-03T23:57:44.683Z,13.10
